createdAt,value
2024-03-24T00:14:11.252Z,32.66
2024-03-24T00:29:36.256Z,32.35
2024-03-24T00:45:01.255Z,32.24
2024-03-24T01:00:26.288Z,32.19
2024-03-24T01:15:51.261Z,32.43
2024-03-24T01:31:16.214Z,32.44
2024-03-24T01:46:41.224Z,32.35
2024-03-24T02:02:06.207Z,32.57
2024-03-24T02:17:31.247Z,32.81
2024-03-24T02:32:57.233Z,32.92
2024-03-24T02:48:22.206Z,32.75
2024-03-24T03:03:47.159Z,32.87
2024-03-24T03:19:12.234Z,32.97
2024-03-24T03:34:37.156Z,33.03
2024-03-24T03:50:02.146Z,33.21
2024-03-24T04:05:27.142Z,33.42
2024-03-24T04:20:52.119Z,33.57
2024-03-24T04:36:17.129Z,33.74
2024-03-24T04:51:42.130Z,33.62
2024-03-24T05:07:07.199Z,33.90
2024-03-24T05:22:32.119Z,34.46
2024-03-24T05:37:57.131Z,34.42
2024-03-24T05:53:22.070Z,34.71
2024-03-24T06:08:47.100Z,34.84
2024-03-24T06:24:12.149Z,34.79
2024-03-24T06:39:39.891Z,35.23
2024-03-24T06:55:02.105Z,35.47
2024-03-24T07:10:27.057Z,35.49
2024-03-24T07:25:52.114Z,35.34
2024-03-24T07:41:17.078Z,35.16
2024-03-24T07:56:42.201Z,35.27
2024-03-24T08:12:07.029Z,33.97
2024-03-24T08:27:31.990Z,33.01
2024-03-24T08:42:58.028Z,34.07
2024-03-24T08:58:23.020Z,33.68
2024-03-24T09:13:48.965Z,32.30
2024-03-24T09:29:14.131Z,33.05
2024-03-24T09:44:41.612Z,33.94
2024-03-24T10:00:04.040Z,34.47
2024-03-24T10:15:28.949Z,34.22
2024-03-24T10:30:53.939Z,33.94
2024-03-24T10:46:21.801Z,34.11
2024-03-24T11:01:43.914Z,32.38
2024-03-24T11:17:08.989Z,31.91
2024-03-24T11:32:33.916Z,32.01
2024-03-24T11:47:58.907Z,32.07
2024-03-24T12:03:23.921Z,31.91
2024-03-24T12:18:48.930Z,31.70
2024-03-24T12:34:13.950Z,31.38
2024-03-24T13:05:03.826Z,30.61
2024-03-24T13:20:28.908Z,31.40
2024-03-24T13:35:53.796Z,31.63
2024-03-24T13:51:18.860Z,36.84
2024-03-24T14:06:43.820Z,36.61
2024-03-24T14:22:08.803Z,35.93
2024-03-24T14:37:33.832Z,34.66
2024-03-24T14:52:58.803Z,33.83
2024-03-24T15:08:23.890Z,32.50
2024-03-24T15:23:49.804Z,32.66
2024-03-24T15:39:14.841Z,35.24
2024-03-24T15:54:39.816Z,35.23
2024-03-24T16:10:05.782Z,35.65
2024-03-24T16:25:30.787Z,35.89
2024-03-24T16:40:55.753Z,36.03
2024-03-24T16:56:21.794Z,35.90
2024-03-24T17:11:46.765Z,36.01
2024-03-24T17:27:11.768Z,35.86
2024-03-24T17:42:37.752Z,35.44
2024-03-24T17:58:02.692Z,35.42
2024-03-24T18:13:27.695Z,35.35
2024-03-24T18:28:52.731Z,34.95
2024-03-24T18:44:17.738Z,34.71
2024-03-24T18:59:44.431Z,34.54
2024-03-24T19:15:07.700Z,34.37
2024-03-24T19:30:32.755Z,35.33
2024-03-24T19:45:57.808Z,35.41
2024-03-24T20:01:22.805Z,35.36
2024-03-24T20:16:47.678Z,35.03
2024-03-24T20:32:12.722Z,34.56
2024-03-24T20:47:37.644Z,33.87
2024-03-24T21:03:02.624Z,33.81
2024-03-24T21:18:27.630Z,33.74
2024-03-24T21:33:53.624Z,33.78
2024-03-24T21:49:18.783Z,33.50
2024-03-24T22:04:43.599Z,33.01
2024-03-24T22:20:08.588Z,33.77
2024-03-24T22:35:33.567Z,32.77
2024-03-24T22:50:58.528Z,33.19
2024-03-24T23:06:23.584Z,32.81
2024-03-24T23:21:48.604Z,33.04
2024-03-24T23:37:13.548Z,34.26
2024-03-24T23:52:38.565Z,33.37
